sensor_id;sensor_type;location;lat;lon;timestamp;P1;durP1;ratioP1;P2;durP2;ratioP2
25129;SDS011;13308;50.860;13.664;2023-02-16T07:07:39;25.83;;;12.15;;
25129;SDS011;13308;50.860;13.664;2023-02-16T07:10:04;31.15;;;12.48;;
25129;SDS011;13308;50.860;13.664;2023-02-16T07:12:30;27.40;;;11.45;;
25129;SDS011;13308;50.860;13.664;2023-02-16T07:14:55;22.95;;;11.48;;
25129;SDS011;13308;50.860;13.664;2023-02-16T07:17:20;26.85;;;12.35;;
25129;SDS011;13308;50.860;13.664;2023-02-16T07:19:46;28.33;;;12.48;;
25129;SDS011;13308;50.860;13.664;2023-02-16T07:22:11;24.17;;;11.30;;
25129;SDS011;13308;50.860;13.664;2023-02-16T07:24:36;32.15;;;12.52;;
25129;SDS011;13308;50.860;13.664;2023-02-16T07:27:02;25.10;;;11.43;;
25129;SDS011;13308;50.860;13.664;2023-02-16T07:29:29;25.10;;;12.40;;
25129;SDS011;13308;50.860;13.664;2023-02-16T07:31:54;26.20;;;12.32;;
25129;SDS011;13308;50.860;13.664;2023-02-16T07:34:21;22.92;;;10.60;;
25129;SDS011;13308;50.860;13.664;2023-02-16T07:36:47;28.20;;;12.30;;
25129;SDS011;13308;50.860;13.664;2023-02-16T07:39:12;27.08;;;13.10;;
25129;SDS011;13308;50.860;13.664;2023-02-16T07:41:37;27.50;;;12.20;;
25129;SDS011;13308;50.860;13.664;2023-02-16T07:44:06;24.75;;;12.27;;
25129;SDS011;13308;50.860;13.664;2023-02-16T07:46:31;27.30;;;12.82;;
25129;SDS011;13308;50.860;13.664;2023-02-16T07:48:57;24.85;;;11.80;;
25129;SDS011;13308;50.860;13.664;2023-02-16T07:51:23;26.45;;;12.88;;
25129;SDS011;13308;50.860;13.664;2023-02-16T07:53:50;29.25;;;13.20;;
25129;SDS011;13308;50.860;13.664;2023-02-16T07:56:28;28.73;;;11.93;;
25129;SDS011;13308;50.860;13.664;2023-02-16T07:58:56;30.38;;;13.30;;
25129;SDS011;13308;50.860;13.664;2023-02-16T08:01:23;23.95;;;12.27;;
25129;SDS011;13308;50.860;13.664;2023-02-16T08:03:49;26.27;;;12.40;;
25129;SDS011;13308;50.860;13.664;2023-02-16T08:06:16;25.42;;;12.38;;
25129;SDS011;13308;50.860;13.664;2023-02-16T08:08:42;30.13;;;12.70;;
25129;SDS011;13308;50.860;13.664;2023-02-16T08:13:34;28.60;;;13.45;;
25129;SDS011;13308;50.860;13.664;2023-02-16T08:15:59;29.05;;;12.32;;
25129;SDS011;13308;50.860;13.664;2023-02-16T08:18:24;29.65;;;12.95;;
25129;SDS011;13308;50.860;13.664;2023-02-16T08:20:50;35.42;;;13.70;;
25129;SDS011;13308;50.860;13.664;2023-02-16T08:23:15;30.92;;;13.48;;
25129;SDS011;13308;50.860;13.664;2023-02-16T08:25:40;30.83;;;14.10;;
25129;SDS011;13308;50.860;13.664;2023-02-16T08:28:05;29.75;;;14.68;;
25129;SDS011;13308;50.860;13.664;2023-02-16T08:30:31;36.25;;;15.00;;
25129;SDS011;13308;50.860;13.664;2023-02-16T08:32:58;29.40;;;13.30;;
25129;SDS011;13308;50.860;13.664;2023-02-16T08:35:26;29.48;;;13.05;;
25129;SDS011;13308;50.860;13.664;2023-02-16T08:37:54;28.40;;;12.70;;
25129;SDS011;13308;50.860;13.664;2023-02-16T08:40:20;25.80;;;11.90;;
25129;SDS011;13308;50.860;13.664;2023-02-16T08:42:48;28.73;;;12.52;;
25129;SDS011;13308;50.860;13.664;2023-02-16T08:45:14;30.23;;;13.38;;
25129;SDS011;13308;50.860;13.664;2023-02-16T08:47:39;24.42;;;12.05;;
25129;SDS011;13308;50.860;13.664;2023-02-16T08:50:04;29.23;;;12.73;;
25129;SDS011;13308;50.860;13.664;2023-02-16T08:52:30;26.27;;;11.52;;
25129;SDS011;13308;50.860;13.664;2023-02-16T08:54:55;21.67;;;11.48;;
25129;SDS011;13308;50.860;13.664;2023-02-16T08:57:21;26.60;;;11.77;;
25129;SDS011;13308;50.860;13.664;2023-02-16T08:59:46;22.77;;;11.30;;
25129;SDS011;13308;50.860;13.664;2023-02-16T09:02:31;23.83;;;13.05;;
25129;SDS011;13308;50.860;13.664;2023-02-16T09:04:57;29.88;;;12.57;;
25129;SDS011;13308;50.860;13.664;2023-02-16T09:07:23;27.88;;;13.13;;
25129;SDS011;13308;50.860;13.664;2023-02-16T09:09:48;28.40;;;12.90;;
25129;SDS011;13308;50.860;13.664;2023-02-16T09:12:13;27.20;;;13.50;;
25129;SDS011;13308;50.860;13.664;2023-02-16T09:14:39;24.73;;;13.45;;
25129;SDS011;13308;50.860;13.664;2023-02-16T09:17:05;22.25;;;11.88;;
25129;SDS011;13308;50.860;13.664;2023-02-16T09:19:31;27.77;;;13.13;;
25129;SDS011;13308;50.860;13.664;2023-02-16T09:21:56;26.48;;;13.73;;
25129;SDS011;13308;50.860;13.664;2023-02-16T09:24:22;23.75;;;11.80;;
25129;SDS011;13308;50.860;13.664;2023-02-16T09:26:47;27.48;;;13.32;;
25129;SDS011;13308;50.860;13.664;2023-02-16T09:29:13;22.50;;;11.85;;
25129;SDS011;13308;50.860;13.664;2023-02-16T09:31:39;31.45;;;16.52;;
25129;SDS011;13308;50.860;13.664;2023-02-16T09:36:32;39.63;;;19.02;;
25129;SDS011;13308;50.860;13.664;2023-02-16T09:38:58;50.97;;;24.95;;
25129;SDS011;13308;50.860;13.664;2023-02-16T09:41:26;24.25;;;11.75;;
25129;SDS011;13308;50.860;13.664;2023-02-16T09:46:27;60.10;;;25.90;;
25129;SDS011;13308;50.860;13.664;2023-02-16T09:48:54;31.02;;;14.55;;
25129;SDS011;13308;50.860;13.664;2023-02-16T09:51:22;36.13;;;16.60;;
25129;SDS011;13308;50.860;13.664;2023-02-16T09:53:55;15.73;;;9.07;;
25129;SDS011;13308;50.860;13.664;2023-02-16T09:57:11;16.88;;;9.13;;
25129;SDS011;13308;50.860;13.664;2023-02-16T09:59:33;34.80;;;15.40;;
25129;SDS011;13308;50.860;13.664;2023-02-16T10:02:28;16.50;;;10.00;;
25129;SDS011;13308;50.860;13.664;2023-02-16T10:05:10;23.80;;;12.65;;
25129;SDS011;13308;50.860;13.664;2023-02-16T10:07:58;16.98;;;9.88;;
25129;SDS011;13308;50.860;13.664;2023-02-16T10:13:21;16.45;;;8.57;;
25129;SDS011;13308;50.860;13.664;2023-02-16T10:15:56;19.25;;;9.20;;
25129;SDS011;13308;50.860;13.664;2023-02-16T10:18:45;20.33;;;11.55;;
25129;SDS011;13308;50.860;13.664;2023-02-16T10:21:14;15.68;;;9.40;;
25129;SDS011;13308;50.860;13.664;2023-02-16T10:23:51;15.30;;;9.43;;
25129;SDS011;13308;50.860;13.664;2023-02-16T10:26:29;20.38;;;8.98;;
25129;SDS011;13308;50.860;13.664;2023-02-16T10:29:02;17.45;;;8.93;;
25129;SDS011;13308;50.860;13.664;2023-02-16T10:34:31;16.85;;;10.25;;
25129;SDS011;13308;50.860;13.664;2023-02-16T10:37:24;17.88;;;9.32;;
25129;SDS011;13308;50.860;13.664;2023-02-16T10:40:17;13.63;;;8.63;;
25129;SDS011;13308;50.860;13.664;2023-02-16T10:45:38;13.57;;;8.57;;
25129;SDS011;13308;50.860;13.664;2023-02-16T10:48:13;18.23;;;8.85;;
25129;SDS011;13308;50.860;13.664;2023-02-16T10:50:42;17.30;;;9.07;;
25129;SDS011;13308;50.860;13.664;2023-02-16T10:53:39;17.15;;;8.82;;
25129;SDS011;13308;50.860;13.664;2023-02-16T10:58:51;14.70;;;8.77;;
25129;SDS011;13308;50.860;13.664;2023-02-16T11:01:21;16.90;;;9.32;;
25129;SDS011;13308;50.860;13.664;2023-02-16T11:03:59;14.90;;;8.80;;
25129;SDS011;13308;50.860;13.664;2023-02-16T11:06:25;14.20;;;9.20;;
25129;SDS011;13308;50.860;13.664;2023-02-16T11:08:52;14.55;;;8.75;;
25129;SDS011;13308;50.860;13.664;2023-02-16T11:11:24;15.55;;;8.77;;
25129;SDS011;13308;50.860;13.664;2023-02-16T11:13:56;16.40;;;10.05;;
25129;SDS011;13308;50.860;13.664;2023-02-16T11:16:24;17.15;;;9.20;;
25129;SDS011;13308;50.860;13.664;2023-02-16T11:19:34;17.38;;;9.32;;
25129;SDS011;13308;50.860;13.664;2023-02-16T11:21:56;14.52;;;8.40;;
25129;SDS011;13308;50.860;13.664;2023-02-16T11:24:26;16.08;;;9.30;;
25129;SDS011;13308;50.860;13.664;2023-02-16T11:29:37;15.40;;;8.63;;
25129;SDS011;13308;50.860;13.664;2023-02-16T11:32:03;16.90;;;10.02;;
25129;SDS011;13308;50.860;13.664;2023-02-16T11:34:38;14.18;;;9.18;;
25129;SDS011;13308;50.860;13.664;2023-02-16T11:37:12;15.35;;;8.80;;
25129;SDS011;13308;50.860;13.664;2023-02-16T11:39:45;14.57;;;8.85;;
25129;SDS011;13308;50.860;13.664;2023-02-16T11:42:24;13.88;;;9.00;;
25129;SDS011;13308;50.860;13.664;2023-02-16T11:45:04;15.85;;;9.15;;
25129;SDS011;13308;50.860;13.664;2023-02-16T11:47:34;15.48;;;8.68;;
25129;SDS011;13308;50.860;13.664;2023-02-16T11:50:07;13.57;;;8.20;;
25129;SDS011;13308;50.860;13.664;2023-02-16T11:52:51;15.10;;;8.23;;
25129;SDS011;13308;50.860;13.664;2023-02-16T11:55:19;13.00;;;7.72;;
25129;SDS011;13308;50.860;13.664;2023-02-16T11:57:47;13.23;;;8.15;;
25129;SDS011;13308;50.860;13.664;2023-02-16T12:00:17;10.20;;;7.30;;
25129;SDS011;13308;50.860;13.664;2023-02-16T12:02:49;14.00;;;7.97;;
25129;SDS011;13308;50.860;13.664;2023-02-16T12:11:17;10.20;;;6.78;;
25129;SDS011;13308;50.860;13.664;2023-02-16T12:17:41;12.30;;;6.60;;
25129;SDS011;13308;50.860;13.664;2023-02-16T12:19:59;15.77;;;7.18;;
25129;SDS011;13308;50.860;13.664;2023-02-16T12:25:17;10.75;;;6.45;;
25129;SDS011;13308;50.860;13.664;2023-02-16T12:28:05;9.82;;;6.00;;
25129;SDS011;13308;50.860;13.664;2023-02-16T12:39:50;13.73;;;7.15;;
25129;SDS011;13308;50.860;13.664;2023-02-16T12:45:23;12.57;;;7.18;;
25129;SDS011;13308;50.860;13.664;2023-02-16T12:48:00;13.00;;;7.68;;
25129;SDS011;13308;50.860;13.664;2023-02-16T12:50:36;9.05;;;6.68;;
25129;SDS011;13308;50.860;13.664;2023-02-16T12:53:19;13.48;;;8.05;;
25129;SDS011;13308;50.860;13.664;2023-02-16T12:55:55;11.43;;;7.72;;
25129;SDS011;13308;50.860;13.664;2023-02-16T12:58:27;14.18;;;7.47;;
25129;SDS011;13308;50.860;13.664;2023-02-16T13:00:57;9.15;;;7.15;;
25129;SDS011;13308;50.860;13.664;2023-02-16T13:03:36;14.02;;;7.65;;
25129;SDS011;13308;50.860;13.664;2023-02-16T13:09:36;11.32;;;7.78;;
25129;SDS011;13308;50.860;13.664;2023-02-16T13:12:02;13.43;;;7.65;;
25129;SDS011;13308;50.860;13.664;2023-02-16T13:14:32;13.75;;;7.85;;
25129;SDS011;13308;50.860;13.664;2023-02-16T13:17:09;10.50;;;7.22;;
25129;SDS011;13308;50.860;13.664;2023-02-16T13:19:45;11.68;;;7.38;;
25129;SDS011;13308;50.860;13.664;2023-02-16T13:28:01;15.50;;;8.30;;
25129;SDS011;13308;50.860;13.664;2023-02-16T13:44:38;10.40;;;7.15;;
25129;SDS011;13308;50.860;13.664;2023-02-16T13:47:10;12.88;;;8.07;;
25129;SDS011;13308;50.860;13.664;2023-02-16T13:49:43;15.10;;;8.82;;
25129;SDS011;13308;50.860;13.664;2023-02-16T13:52:24;13.75;;;8.75;;
25129;SDS011;13308;50.860;13.664;2023-02-16T13:55:02;11.30;;;7.90;;
25129;SDS011;13308;50.860;13.664;2023-02-16T13:57:53;19.08;;;8.48;;
25129;SDS011;13308;50.860;13.664;2023-02-16T14:00:26;13.98;;;8.32;;
25129;SDS011;13308;50.860;13.664;2023-02-16T14:03:03;17.98;;;8.90;;
25129;SDS011;13308;50.860;13.664;2023-02-16T14:05:30;17.45;;;9.05;;
25129;SDS011;13308;50.860;13.664;2023-02-16T14:08:07;15.77;;;8.75;;
25129;SDS011;13308;50.860;13.664;2023-02-16T14:18:42;14.32;;;9.05;;
25129;SDS011;13308;50.860;13.664;2023-02-16T14:21:29;14.55;;;9.32;;
25129;SDS011;13308;50.860;13.664;2023-02-16T14:23:56;15.18;;;9.05;;
25129;SDS011;13308;50.860;13.664;2023-02-16T14:26:23;17.08;;;9.20;;
25129;SDS011;13308;50.860;13.664;2023-02-16T14:28:51;16.02;;;9.77;;
25129;SDS011;13308;50.860;13.664;2023-02-16T14:31:24;16.20;;;9.40;;
25129;SDS011;13308;50.860;13.664;2023-02-16T14:33:59;14.95;;;9.75;;
25129;SDS011;13308;50.860;13.664;2023-02-16T14:36:29;12.75;;;9.70;;
25129;SDS011;13308;50.860;13.664;2023-02-16T14:38:56;15.32;;;10.68;;
25129;SDS011;13308;50.860;13.664;2023-02-16T14:41:30;14.88;;;10.00;;
25129;SDS011;13308;50.860;13.664;2023-02-16T14:52:35;18.00;;;10.52;;
25129;SDS011;13308;50.860;13.664;2023-02-16T14:55:17;15.57;;;9.63;;
25129;SDS011;13308;50.860;13.664;2023-02-16T15:00:50;14.00;;;8.95;;
25129;SDS011;13308;50.860;13.664;2023-02-16T15:03:20;16.15;;;8.88;;
25129;SDS011;13308;50.860;13.664;2023-02-16T15:05:52;13.25;;;8.52;;
25129;SDS011;13308;50.860;13.664;2023-02-16T15:08:22;17.10;;;10.50;;
25129;SDS011;13308;50.860;13.664;2023-02-16T15:11:12;18.10;;;9.63;;
25129;SDS011;13308;50.860;13.664;2023-02-16T15:13:39;15.90;;;9.07;;
25129;SDS011;13308;50.860;13.664;2023-02-16T15:16:06;17.80;;;10.75;;
25129;SDS011;13308;50.860;13.664;2023-02-16T15:18:45;19.65;;;10.52;;
25129;SDS011;13308;50.860;13.664;2023-02-16T15:21:18;18.30;;;9.73;;
25129;SDS011;13308;50.860;13.664;2023-02-16T15:23:49;21.45;;;11.98;;
25129;SDS011;13308;50.860;13.664;2023-02-16T15:26:18;17.73;;;10.30;;
25129;SDS011;13308;50.860;13.664;2023-02-16T15:28:50;23.65;;;10.07;;
25129;SDS011;13308;50.860;13.664;2023-02-16T15:31:18;16.65;;;8.95;;
25129;SDS011;13308;50.860;13.664;2023-02-16T15:33:52;20.70;;;11.25;;
25129;SDS011;13308;50.860;13.664;2023-02-16T15:36:22;20.13;;;10.25;;
25129;SDS011;13308;50.860;13.664;2023-02-16T15:38:55;18.15;;;9.38;;
25129;SDS011;13308;50.860;13.664;2023-02-16T15:41:30;17.38;;;8.63;;
25129;SDS011;13308;50.860;13.664;2023-02-16T15:43:58;17.23;;;9.55;;
25129;SDS011;13308;50.860;13.664;2023-02-16T15:46:37;16.60;;;9.18;;
25129;SDS011;13308;50.860;13.664;2023-02-16T15:49:18;14.88;;;9.05;;
25129;SDS011;13308;50.860;13.664;2023-02-16T15:51:49;12.32;;;7.63;;
25129;SDS011;13308;50.860;13.664;2023-02-16T15:54:18;14.10;;;8.18;;
25129;SDS011;13308;50.860;13.664;2023-02-16T15:56:59;16.98;;;8.75;;
25129;SDS011;13308;50.860;13.664;2023-02-16T16:04:50;17.17;;;9.30;;
25129;SDS011;13308;50.860;13.664;2023-02-16T16:09:50;14.27;;;8.32;;
25129;SDS011;13308;50.860;13.664;2023-02-16T16:12:16;51.03;;;24.25;;
25129;SDS011;13308;50.860;13.664;2023-02-16T16:14:47;50.80;;;24.08;;
25129;SDS011;13308;50.860;13.664;2023-02-16T16:17:16;24.75;;;12.75;;
25129;SDS011;13308;50.860;13.664;2023-02-16T16:19:44;12.45;;;8.13;;
25129;SDS011;13308;50.860;13.664;2023-02-16T16:22:30;14.38;;;8.70;;
25129;SDS011;13308;50.860;13.664;2023-02-16T16:24:57;13.20;;;8.02;;
25129;SDS011;13308;50.860;13.664;2023-02-16T16:27:27;14.27;;;8.63;;
25129;SDS011;13308;50.860;13.664;2023-02-16T16:30:26;14.77;;;7.85;;
25129;SDS011;13308;50.860;13.664;2023-02-16T16:35:36;14.75;;;7.65;;
25129;SDS011;13308;50.860;13.664;2023-02-16T16:38:04;18.02;;;9.48;;
25129;SDS011;13308;50.860;13.664;2023-02-16T16:40:43;13.30;;;8.00;;
25129;SDS011;13308;50.860;13.664;2023-02-16T16:43:15;12.98;;;7.97;;
25129;SDS011;13308;50.860;13.664;2023-02-16T16:45:46;10.95;;;7.70;;
25129;SDS011;13308;50.860;13.664;2023-02-16T16:48:18;15.75;;;8.50;;
25129;SDS011;13308;50.860;13.664;2023-02-16T16:50:48;14.18;;;8.80;;
25129;SDS011;13308;50.860;13.664;2023-02-16T16:55:57;15.88;;;9.02;;
25129;SDS011;13308;50.860;13.664;2023-02-16T16:58:22;15.90;;;9.38;;
25129;SDS011;13308;50.860;13.664;2023-02-16T17:00:48;14.23;;;8.75;;
25129;SDS011;13308;50.860;13.664;2023-02-16T17:03:14;15.18;;;7.60;;
25129;SDS011;13308;50.860;13.664;2023-02-16T17:05:42;13.23;;;7.75;;
25129;SDS011;13308;50.860;13.664;2023-02-16T17:08:08;10.95;;;7.13;;
25129;SDS011;13308;50.860;13.664;2023-02-16T17:10:35;12.60;;;7.03;;
25129;SDS011;13308;50.860;13.664;2023-02-16T17:13:03;17.30;;;7.65;;
25129;SDS011;13308;50.860;13.664;2023-02-16T17:15:38;14.95;;;7.82;;
25129;SDS011;13308;50.860;13.664;2023-02-16T17:18:08;15.52;;;7.85;;
25129;SDS011;13308;50.860;13.664;2023-02-16T17:20:38;10.05;;;6.20;;
25129;SDS011;13308;50.860;13.664;2023-02-16T17:23:04;13.75;;;6.72;;
25129;SDS011;13308;50.860;13.664;2023-02-16T17:25:31;9.68;;;6.15;;
25129;SDS011;13308;50.860;13.664;2023-02-16T17:27:57;13.80;;;6.72;;
25129;SDS011;13308;50.860;13.664;2023-02-16T17:30:23;9.93;;;6.22;;
25129;SDS011;13308;50.860;13.664;2023-02-16T17:32:49;11.30;;;6.40;;
25129;SDS011;13308;50.860;13.664;2023-02-16T17:35:14;11.13;;;6.53;;
25129;SDS011;13308;50.860;13.664;2023-02-16T17:37:40;13.00;;;6.93;;
25129;SDS011;13308;50.860;13.664;2023-02-16T17:40:09;14.98;;;8.10;;
25129;SDS011;13308;50.860;13.664;2023-02-16T17:42:39;9.80;;;6.43;;
25129;SDS011;13308;50.860;13.664;2023-02-16T17:45:05;9.70;;;6.20;;
25129;SDS011;13308;50.860;13.664;2023-02-16T17:47:31;10.80;;;6.78;;
25129;SDS011;13308;50.860;13.664;2023-02-16T17:49:56;15.40;;;6.53;;
25129;SDS011;13308;50.860;13.664;2023-02-16T17:52:22;9.32;;;6.18;;
25129;SDS011;13308;50.860;13.664;2023-02-16T17:54:49;11.38;;;7.15;;
25129;SDS011;13308;50.860;13.664;2023-02-16T17:57:14;12.52;;;6.95;;
25129;SDS011;13308;50.860;13.664;2023-02-16T17:59:40;25.10;;;10.48;;
25129;SDS011;13308;50.860;13.664;2023-02-16T18:02:07;13.02;;;5.60;;
25129;SDS011;13308;50.860;13.664;2023-02-16T18:04:34;8.95;;;5.22;;
25129;SDS011;13308;50.860;13.664;2023-02-16T18:07:04;14.52;;;7.30;;
25129;SDS011;13308;50.860;13.664;2023-02-16T18:09:39;37.00;;;14.98;;
25129;SDS011;13308;50.860;13.664;2023-02-16T18:12:05;39.45;;;15.55;;
25129;SDS011;13308;50.860;13.664;2023-02-16T18:14:31;35.75;;;14.38;;
25129;SDS011;13308;50.860;13.664;2023-02-16T18:16:56;42.65;;;16.38;;
25129;SDS011;13308;50.860;13.664;2023-02-16T18:19:24;33.88;;;13.50;;
25129;SDS011;13308;50.860;13.664;2023-02-16T18:21:49;29.58;;;11.15;;
25129;SDS011;13308;50.860;13.664;2023-02-16T18:24:15;34.17;;;12.82;;
25129;SDS011;13308;50.860;13.664;2023-02-16T18:26:40;26.73;;;11.25;;
25129;SDS011;13308;50.860;13.664;2023-02-16T18:29:06;31.08;;;10.48;;
25129;SDS011;13308;50.860;13.664;2023-02-16T18:31:31;32.20;;;11.93;;
25129;SDS011;13308;50.860;13.664;2023-02-16T18:33:56;18.33;;;9.43;;
25129;SDS011;13308;50.860;13.664;2023-02-16T18:36:22;16.67;;;8.98;;
25129;SDS011;13308;50.860;13.664;2023-02-16T18:38:47;9.40;;;6.13;;
25129;SDS011;13308;50.860;13.664;2023-02-16T18:41:12;13.82;;;6.70;;
25129;SDS011;13308;50.860;13.664;2023-02-16T18:43:38;10.40;;;6.43;;
25129;SDS011;13308;50.860;13.664;2023-02-16T18:46:04;7.97;;;5.75;;
25129;SDS011;13308;50.860;13.664;2023-02-16T18:48:30;12.45;;;6.40;;
25129;SDS011;13308;50.860;13.664;2023-02-16T18:50:56;10.35;;;6.78;;
25129;SDS011;13308;50.860;13.664;2023-02-16T18:53:21;12.57;;;6.60;;
25129;SDS011;13308;50.860;13.664;2023-02-16T18:55:46;10.05;;;6.65;;
25129;SDS011;13308;50.860;13.664;2023-02-16T18:58:12;8.68;;;6.15;;
25129;SDS011;13308;50.860;13.664;2023-02-16T19:00:38;8.70;;;5.93;;
25129;SDS011;13308;50.860;13.664;2023-02-16T19:03:04;12.07;;;6.78;;
25129;SDS011;13308;50.860;13.664;2023-02-16T19:05:30;10.73;;;7.28;;
25129;SDS011;13308;50.860;13.664;2023-02-16T19:07:56;11.85;;;7.10;;
25129;SDS011;13308;50.860;13.664;2023-02-16T19:10:21;13.90;;;7.60;;
25129;SDS011;13308;50.860;13.664;2023-02-16T19:12:47;11.15;;;7.60;;
25129;SDS011;13308;50.860;13.664;2023-02-16T19:15:12;16.35;;;8.55;;
25129;SDS011;13308;50.860;13.664;2023-02-16T19:17:37;14.98;;;8.80;;
25129;SDS011;13308;50.860;13.664;2023-02-16T19:20:03;16.13;;;9.38;;
25129;SDS011;13308;50.860;13.664;2023-02-16T19:22:30;11.98;;;7.85;;
25129;SDS011;13308;50.860;13.664;2023-02-16T19:24:57;15.38;;;8.70;;
25129;SDS011;13308;50.860;13.664;2023-02-16T19:27:23;15.18;;;8.90;;
